Time;durP1;ratioP1;P1;durP2;ratioP2;P2;SDS_P1;SDS_P2;PMS_P1;PMS_P2;Temp;Humidity;BMP_temperature;BMP_pressure;BME280_temperature;BME280_humidity;BME280_pressure;Samples;Min_cycle;Max_cycle;Signal;HPM_P1;HPM_P2
2022/01/19 00:00:31;;;;;;;6.80;3.03;;;5.60;99.90;;;;;;5135589;27;20034;-80
2022/01/19 00:02:57;;;;;;;5.50;2.93;;;5.60;99.90;;;;;;5116535;28;20460;-80
2022/01/19 00:05:25;;;;;;;4.80;2.97;;;5.60;99.90;;;;;;5134663;27;20030;-80
2022/01/19 00:07:51;;;;;;;5.07;3.07;;;5.60;99.90;;;;;;5116981;27;20083;-80
2022/01/19 00:10:20;;;;;;;8.17;2.97;;;5.60;99.90;;;;;;5116935;27;20379;-79
2022/01/19 00:12:46;;;;;;;6.40;3.40;;;5.60;99.90;;;;;;5117119;27;20019;-80
2022/01/19 00:15:12;;;;;;;6.30;3.17;;;5.60;99.90;;;;;;5116593;27;20134;-81
2022/01/19 00:17:39;;;;;;;6.30;3.10;;;5.60;99.90;;;;;;5117149;27;20451;-80
2022/01/19 00:20:07;;;;;;;4.87;2.77;;;5.60;99.90;;;;;;5116180;27;20023;-80
2022/01/19 00:22:33;;;;;;;4.80;2.90;;;5.60;99.90;;;;;;5135277;27;20019;-81
2022/01/19 00:24:59;;;;;;;7.10;2.97;;;5.60;99.90;;;;;;5116853;27;20559;-81
2022/01/19 00:27:24;;;;;;;7.43;3.33;;;5.60;99.90;;;;;;5116027;27;20054;-81
2022/01/19 00:29:51;;;;;;;6.70;3.00;;;5.50;99.90;;;;;;5117431;27;20060;-81
2022/01/19 00:32:16;;;;;;;4.80;2.70;;;5.50;99.90;;;;;;5134913;27;20516;-81
2022/01/19 00:34:42;;;;;;;4.17;2.70;;;5.40;99.90;;;;;;5134880;27;20031;-82
2022/01/19 00:37:08;;;;;;;5.57;2.70;;;5.40;99.90;;;;;;5116257;27;20027;-83
2022/01/19 00:39:34;;;;;;;7.27;2.87;;;5.30;99.90;;;;;;5117010;28;20475;-83
2022/01/19 00:42:00;;;;;;;4.37;2.83;;;5.30;99.90;;;;;;5116896;27;20027;-83
2022/01/19 00:44:26;;;;;;;4.90;2.60;;;5.30;99.90;;;;;;5116082;28;20027;-80
2022/01/19 00:46:52;;;;;;;4.77;2.80;;;5.30;99.90;;;;;;5116713;28;20039;-79
2022/01/19 00:49:18;;;;;;;5.90;3.07;;;5.20;99.90;;;;;;5116010;28;20038;-80
2022/01/19 00:51:43;;;;;;;7.03;3.10;;;5.10;99.90;;;;;;5116357;28;20482;-79
2022/01/19 00:54:09;;;;;;;5.93;2.90;;;5.10;99.90;;;;;;5134200;28;20079;-80
2022/01/19 00:56:35;;;;;;;3.47;2.70;;;5.00;99.90;;;;;;5134524;28;20031;-79
2022/01/19 00:59:00;;;;;;;6.60;3.13;;;5.00;99.90;;;;;;5134769;28;20069;-80
2022/01/19 01:01:26;;;;;;;4.77;2.67;;;4.90;99.90;;;;;;5116021;28;20031;-80
2022/01/19 01:03:52;;;;;;;6.03;2.80;;;4.90;99.90;;;;;;5134691;28;20030;-79
2022/01/19 01:06:19;;;;;;;8.13;3.10;;;4.80;99.90;;;;;;5115677;28;20062;-80
2022/01/19 01:08:45;;;;;;;6.63;2.97;;;4.80;99.90;;;;;;5116617;28;20540;-80
2022/01/19 01:11:11;;;;;;;6.57;2.80;;;4.70;99.90;;;;;;5115934;28;20114;-80
2022/01/19 01:16:35;;;;;;;6.10;3.30;;;4.70;99.90;;;;;;5138343;27;20096;-80
2022/01/19 01:19:04;;;;;;;4.97;3.17;;;4.60;99.90;;;;;;5120705;27;20031;-80
2022/01/19 01:21:29;;;;;;;7.57;3.17;;;4.50;99.90;;;;;;5119990;27;20031;-80
2022/01/19 01:23:55;;;;;;;6.70;3.23;;;4.50;99.90;;;;;;5138727;27;20043;-81
2022/01/19 01:26:21;;;;;;;6.00;3.13;;;4.40;99.90;;;;;;5120050;27;20110;-80
2022/01/19 01:28:46;;;;;;;4.87;3.27;;;4.30;99.90;;;;;;5120751;27;20023;-80
2022/01/19 01:31:12;;;;;;;6.13;3.10;;;4.30;99.90;;;;;;5119761;27;20428;-80
2022/01/19 01:33:40;;;;;;;6.63;3.40;;;4.30;99.90;;;;;;5120318;27;20049;-80
2022/01/19 01:36:07;;;;;;;6.67;3.37;;;4.30;99.90;;;;;;5119871;27;20440;-80
2022/01/19 01:38:33;;;;;;;7.27;3.30;;;4.30;99.90;;;;;;5120117;27;20035;-80
2022/01/19 01:40:58;;;;;;;7.37;3.70;;;4.20;99.90;;;;;;5120248;27;20057;-79
2022/01/19 01:43:25;;;;;;;4.47;3.00;;;4.20;99.90;;;;;;5119171;27;20059;-79
2022/01/19 01:45:55;;;;;;;7.60;3.10;;;4.00;99.90;;;;;;5119835;27;20027;-79
2022/01/19 01:48:24;;;;;;;8.60;3.60;;;4.00;99.90;;;;;;5137703;27;20023;-81
2022/01/19 01:53:35;;;;;;;7.83;3.50;;;4.00;99.90;;;;;;5138103;27;20115;-80
2022/01/19 01:56:10;;;;;;;7.77;3.23;;;4.00;99.90;;;;;;5119799;27;20031;-80
2022/01/19 01:58:39;;;;;;;5.40;2.90;;;4.00;99.90;;;;;;5137897;27;20015;-81
2022/01/19 02:01:06;;;;;;;6.57;3.10;;;4.00;99.90;;;;;;5137701;27;20027;-80
2022/01/19 02:03:38;;;;;;;6.50;3.37;;;4.00;99.90;;;;;;5119248;27;20052;-80
2022/01/19 02:09:04;;;;;;;6.73;3.10;;;3.80;99.90;;;;;;5137805;27;20181;-80
2022/01/19 02:21:37;;;;;;;6.10;2.90;;;3.70;99.90;;;;;;5137554;27;20054;-80
2022/01/19 02:22:30;;;;;;;5.57;2.67;;;3.60;99.90;;;;;;5136842;27;20068;-79
2022/01/19 02:24:56;;;;;;;5.87;2.90;;;3.60;99.90;;;;;;5115351;28;20050;-80
2022/01/19 02:31:22;;;;;;;5.73;3.57;;;3.60;99.90;;;;;;5103892;27;20127;-80
2022/01/19 02:41:26;;;;;;;9.30;3.50;;;3.40;99.90;;;;;;5116233;28;20439;-80
2022/01/19 02:43:52;;;;;;;3.87;3.33;;;3.40;99.90;;;;;;5115429;28;20059;-80
2022/01/19 02:46:53;;;;;;;8.03;3.67;;;3.40;99.90;;;;;;5115753;28;20083;-79
2022/01/19 02:49:20;;;;;;;9.47;3.87;;;3.30;99.90;;;;;;5114751;28;20043;-80
2022/01/19 02:51:51;;;;;;;7.57;3.43;;;3.40;99.90;;;;;;5116286;28;20081;-80
2022/01/19 02:54:23;;;;;;;6.38;3.15;;;3.30;99.90;;;;;;5114654;28;20055;-80
2022/01/19 02:56:53;;;;;;;7.63;3.63;;;3.30;99.90;;;;;;5115363;28;20056;-79
2022/01/19 02:59:30;;;;;;;7.53;3.60;;;3.30;99.90;;;;;;5114651;28;20078;-80
2022/01/19 03:10:09;;;;;;;6.17;3.50;;;3.20;99.90;;;;;;5115935;28;20078;-80
2022/01/19 03:12:34;;;;;;;5.20;3.27;;;3.20;99.90;;;;;;5115112;28;20041;-80
2022/01/19 03:15:00;;;;;;;8.10;3.77;;;3.10;99.90;;;;;;5114331;28;20461;-80
2022/01/19 03:17:26;;;;;;;6.97;3.27;;;3.10;99.90;;;;;;5114835;28;20032;-80
2022/01/19 03:19:52;;;;;;;6.90;3.67;;;3.00;99.90;;;;;;5114468;28;20114;-79
2022/01/19 03:22:23;;;;;;;7.17;3.80;;;3.00;99.90;;;;;;5114214;28;20023;-80
2022/01/19 03:24:51;;;;;;;8.63;3.93;;;2.90;99.90;;;;;;5129954;27;20047;-80
2022/01/19 03:27:17;;;;;;;7.67;3.80;;;2.80;99.90;;;;;;5117741;27;20058;-80
2022/01/19 03:29:44;;;;;;;8.90;3.50;;;2.90;99.90;;;;;;5118187;27;20068;-80
2022/01/19 03:32:11;;;;;;;7.90;4.10;;;2.90;99.90;;;;;;5118309;27;20034;-80
2022/01/19 03:34:37;;;;;;;9.20;3.80;;;2.90;99.90;;;;;;5135408;27;20024;-80
2022/01/19 03:37:03;;;;;;;7.50;3.87;;;2.90;99.90;;;;;;5136083;27;20035;-81
2022/01/19 03:39:30;;;;;;;8.73;3.73;;;2.90;99.90;;;;;;5135567;27;20026;-82
2022/01/19 03:41:56;;;;;;;8.17;3.80;;;2.90;99.90;;;;;;5117944;27;20042;-82
2022/01/19 03:44:21;;;;;;;5.73;3.77;;;2.80;99.90;;;;;;5135815;27;20608;-81
2022/01/19 03:46:59;;;;;;;7.30;3.50;;;2.80;99.90;;;;;;5135791;27;20031;-81
2022/01/19 03:49:27;;;;;;;7.40;4.07;;;2.70;99.90;;;;;;5117074;27;20168;-81
2022/01/19 03:51:58;;;;;;;6.57;3.80;;;2.60;99.90;;;;;;5117567;27;20031;-81
2022/01/19 03:54:28;;;;;;;8.73;4.53;;;2.60;99.90;;;;;;5117360;27;20030;-79
2022/01/19 03:56:54;;;;;;;8.20;3.93;;;2.60;99.90;;;;;;5117474;27;20027;-80
2022/01/19 03:59:20;;;;;;;6.90;3.87;;;2.50;99.90;;;;;;5135153;27;20076;-80
2022/01/19 04:01:45;;;;;;;9.90;3.77;;;2.50;99.90;;;;;;5120907;27;20056;-79
2022/01/19 04:07:00;;;;;;;7.40;3.97;;;2.40;99.90;;;;;;5114552;28;20042;-80
2022/01/19 04:09:27;;;;;;;7.03;3.83;;;2.40;99.90;;;;;;5096281;28;20027;-81
2022/01/19 04:11:53;;;;;;;8.73;3.90;;;2.40;99.90;;;;;;5114858;28;20487;-82
2022/01/19 04:14:22;;;;;;;9.43;4.90;;;2.40;99.90;;;;;;5114239;28;20020;-82
2022/01/19 04:16:58;;;;;;;8.60;4.57;;;2.40;99.90;;;;;;5114650;28;20039;-82
2022/01/19 04:19:58;;;;;;;8.93;4.40;;;2.40;99.90;;;;;;5096427;28;20118;-82
2022/01/19 04:22:19;;;;;;;8.37;4.43;;;2.50;99.90;;;;;;5109820;28;20031;-81
2022/01/19 04:24:49;;;;;;;8.93;4.13;;;2.50;99.90;;;;;;5096214;28;20154;-81
2022/01/19 04:30:01;;;;;;;7.77;4.43;;;2.60;99.90;;;;;;5113906;28;20105;-81
2022/01/19 04:35:02;;;;;;;10.55;4.40;;;2.60;99.90;;;;;;5114715;28;20027;-82
2022/01/19 04:37:39;;;;;;;9.07;4.97;;;2.60;99.90;;;;;;5095931;28;20063;-82
2022/01/19 04:46:05;;;;;;;11.07;5.30;;;2.40;99.90;;;;;;5113970;28;20412;-82
2022/01/19 05:05:19;;;;;;;8.03;5.00;;;2.70;99.90;;;;;;5114405;28;20517;-82
2022/01/19 05:15:46;;;;;;;8.43;5.00;;;2.50;99.90;;;;;;5114123;28;20054;-82
2022/01/19 05:18:12;;;;;;;11.13;5.30;;;2.50;99.90;;;;;;5095632;28;20479;-81
2022/01/19 05:20:38;;;;;;;9.47;4.67;;;2.50;99.90;;;;;;5095367;28;20024;-82
2022/01/19 05:23:04;;;;;;;12.77;4.93;;;2.60;99.90;;;;;;5096269;28;20024;-82
2022/01/19 05:25:29;;;;;;;9.03;4.33;;;2.60;99.90;;;;;;5113743;28;20078;-82
2022/01/19 05:27:55;;;;;;;11.53;5.00;;;2.60;99.90;;;;;;5095767;28;20031;-82
2022/01/19 05:30:21;;;;;;;8.63;4.47;;;2.60;99.90;;;;;;5113276;28;20047;-81
2022/01/19 05:32:47;;;;;;;7.97;4.63;;;2.50;99.90;;;;;;5095597;28;20020;-80
2022/01/19 05:35:14;;;;;;;8.90;5.00;;;2.50;99.90;;;;;;5095979;28;20545;-80
2022/01/19 05:37:40;;;;;;;9.53;4.53;;;2.50;99.90;;;;;;5113563;28;20468;-81
2022/01/19 05:40:08;;;;;;;10.70;5.23;;;2.40;99.90;;;;;;5113098;28;20031;-81
2022/01/19 05:42:33;;;;;;;7.93;4.70;;;2.40;99.90;;;;;;5078700;28;20024;-81
2022/01/19 05:44:59;;;;;;;12.10;4.90;;;2.30;99.90;;;;;;5113951;28;20027;-82
2022/01/19 05:47:25;;;;;;;10.00;5.53;;;2.30;99.90;;;;;;5113273;28;20028;-81
2022/01/19 05:49:51;;;;;;;11.30;5.53;;;2.30;99.90;;;;;;5096002;28;20031;-81
2022/01/19 05:52:16;;;;;;;12.00;5.87;;;2.30;99.90;;;;;;5095534;28;20119;-81
2022/01/19 05:54:42;;;;;;;12.43;6.20;;;2.20;99.90;;;;;;5095492;28;20030;-81
2022/01/19 05:57:08;;;;;;;11.40;5.93;;;2.10;99.90;;;;;;5113983;28;20383;-82
2022/01/19 05:59:34;;;;;;;12.77;6.40;;;2.10;99.90;;;;;;5113224;28;20024;-82
2022/01/19 06:02:00;;;;;;;11.50;6.03;;;2.10;99.90;;;;;;5098146;28;20027;-82
2022/01/19 06:04:25;;;;;;;9.57;5.80;;;2.00;99.90;;;;;;5098575;28;20111;-82
2022/01/19 06:06:54;;;;;;;13.67;6.57;;;2.00;99.90;;;;;;5099651;28;20532;-82
2022/01/19 06:09:34;;;;;;;9.93;4.97;;;2.00;99.90;;;;;;5099313;28;20027;-82
2022/01/19 06:12:08;;;;;;;12.57;5.97;;;1.90;99.90;;;;;;5117457;28;20031;-83
2022/01/19 06:14:36;;;;;;;10.77;5.97;;;1.90;99.90;;;;;;5098805;28;20034;-82
2022/01/19 06:17:04;;;;;;;11.07;6.27;;;1.90;99.90;;;;;;5099417;28;20031;-82
2022/01/19 06:19:30;;;;;;;11.10;6.20;;;1.80;99.90;;;;;;5116792;28;20026;-82
2022/01/19 06:21:56;;;;;;;10.20;5.80;;;1.80;99.90;;;;;;5116877;28;20034;-83
2022/01/19 06:24:23;;;;;;;11.20;5.87;;;1.70;99.90;;;;;;5116972;28;20048;-83
2022/01/19 06:26:49;;;;;;;10.27;5.87;;;1.80;99.90;;;;;;5117088;28;20082;-82
2022/01/19 06:29:15;;;;;;;10.63;6.13;;;1.70;99.90;;;;;;5117087;28;20453;-82
2022/01/19 06:31:41;;;;;;;11.70;6.00;;;1.70;99.90;;;;;;5116268;28;20464;-82
2022/01/19 06:34:07;;;;;;;12.23;6.60;;;1.70;99.90;;;;;;5098592;28;20023;-82
2022/01/19 06:36:32;;;;;;;11.10;6.13;;;1.70;99.90;;;;;;5098052;28;20035;-82
2022/01/19 06:38:58;;;;;;;12.90;6.70;;;1.60;99.90;;;;;;5116510;28;20019;-80
2022/01/19 06:41:25;;;;;;;12.43;6.50;;;1.60;99.90;;;;;;5116379;28;20047;-80
2022/01/19 06:43:50;;;;;;;13.53;7.17;;;1.50;99.90;;;;;;5098441;28;20460;-82
2022/01/19 06:46:16;;;;;;;13.63;7.07;;;1.40;99.90;;;;;;5098280;28;20038;-79
2022/01/19 06:48:42;;;;;;;12.73;7.40;;;1.40;99.90;;;;;;5097837;28;20472;-82
2022/01/19 06:51:08;;;;;;;14.13;6.90;;;1.40;99.90;;;;;;5116262;28;20024;-82
2022/01/19 06:53:34;;;;;;;11.23;6.43;;;1.30;99.90;;;;;;5097826;28;20023;-82
2022/01/19 06:55:59;;;;;;;12.63;7.33;;;1.40;99.90;;;;;;5116449;28;20077;-82
2022/01/19 06:58:27;;;;;;;15.40;7.33;;;1.40;99.90;;;;;;5097890;28;20023;-84
2022/01/19 07:00:52;;;;;;;16.20;7.73;;;1.30;99.90;;;;;;5097927;28;20379;-84
2022/01/19 07:03:18;;;;;;;15.37;7.60;;;1.30;99.90;;;;;;5097978;28;20111;-84
2022/01/19 07:05:45;;;;;;;12.40;7.30;;;1.30;99.90;;;;;;5097252;28;20062;-82
2022/01/19 07:08:10;;;;;;;13.60;7.40;;;1.30;99.90;;;;;;5097981;28;20464;-83
2022/01/19 07:10:36;;;;;;;17.00;8.03;;;1.30;99.90;;;;;;5097208;28;20076;-83
2022/01/19 07:13:03;;;;;;;15.27;7.87;;;1.20;99.90;;;;;;5097194;28;20039;-85
2022/01/19 07:15:29;;;;;;;18.87;8.27;;;1.30;99.90;;;;;;5096891;28;20016;-82
2022/01/19 07:17:55;;;;;;;12.97;6.93;;;1.20;99.90;;;;;;5115705;28;20026;-83
2022/01/19 07:20:20;;;;;;;18.83;7.83;;;1.20;99.90;;;;;;5097333;28;20024;-82
2022/01/19 07:22:47;;;;;;;17.40;8.97;;;1.10;99.90;;;;;;5097020;28;20268;-84
2022/01/19 07:25:14;;;;;;;14.90;8.43;;;1.10;99.90;;;;;;5112610;28;20099;-83
2022/01/19 07:27:40;;;;;;;16.17;8.17;;;1.10;99.90;;;;;;5114922;28;20078;-83
2022/01/19 07:30:07;;;;;;;14.67;8.60;;;1.10;99.90;;;;;;5115313;28;20029;-83
2022/01/19 07:32:34;;;;;;;17.27;7.93;;;1.20;99.90;;;;;;5096030;28;20115;-81
2022/01/19 07:35:01;;;;;;;14.10;7.77;;;1.30;99.90;;;;;;5096332;28;20452;-82
2022/01/19 07:37:27;;;;;;;17.17;8.80;;;1.30;99.90;;;;;;5096468;28;20088;-83
2022/01/19 07:39:53;;;;;;;14.73;8.10;;;1.20;99.90;;;;;;5109706;28;20035;-80
2022/01/19 07:42:19;;;;;;;18.30;9.20;;;1.20;99.90;;;;;;5094568;28;20030;-79
2022/01/19 07:44:45;;;;;;;12.67;7.60;;;1.30;99.90;;;;;;5095396;28;20039;-80
2022/01/19 07:47:11;;;;;;;14.07;7.67;;;1.20;99.90;;;;;;5095580;28;20447;-80
2022/01/19 07:49:37;;;;;;;17.57;8.60;;;1.20;99.90;;;;;;5095017;28;20464;-79
2022/01/19 07:52:03;;;;;;;17.63;8.10;;;1.30;99.90;;;;;;5095407;28;20032;-80
2022/01/19 07:54:28;;;;;;;14.97;8.63;;;1.30;99.90;;;;;;5094739;28;20047;-80
2022/01/19 07:56:54;;;;;;;19.30;9.53;;;1.30;99.90;;;;;;5094213;28;20087;-80
2022/01/19 07:59:20;;;;;;;15.27;8.67;;;1.30;99.90;;;;;;5095419;28;20039;-79
2022/01/19 08:01:46;;;;;;;20.73;8.33;;;1.20;99.90;;;;;;5095108;28;20483;-80
2022/01/19 08:04:11;;;;;;;16.90;8.83;;;1.30;99.90;;;;;;5095621;28;20020;-80
2022/01/19 08:06:37;;;;;;;15.73;8.40;;;1.30;99.90;;;;;;5094912;28;20035;-80
2022/01/19 08:09:04;;;;;;;20.93;8.20;;;1.40;99.90;;;;;;5112939;28;20476;-79
2022/01/19 08:11:30;;;;;;;19.17;9.03;;;1.40;99.90;;;;;;5086805;28;20384;-81
2022/01/19 08:13:56;;;;;;;20.37;9.90;;;1.40;99.90;;;;;;5095083;28;20023;-80
2022/01/19 08:16:22;;;;;;;19.13;9.37;;;1.50;99.90;;;;;;5095314;28;20214;-80
2022/01/19 08:18:48;;;;;;;18.73;9.27;;;1.50;99.90;;;;;;5094743;28;20225;-80
2022/01/19 08:21:14;;;;;;;16.40;8.53;;;1.60;99.90;;;;;;5112930;28;20015;-80
2022/01/19 08:23:40;;;;;;;17.83;9.87;;;1.60;99.90;;;;;;5111675;28;20365;-79
2022/01/19 08:26:05;;;;;;;21.37;10.40;;;1.60;99.90;;;;;;5094397;28;20027;-79
2022/01/19 08:28:31;;;;;;;21.77;9.73;;;1.70;99.90;;;;;;5094397;28;20085;-78
2022/01/19 08:30:57;;;;;;;17.23;9.57;;;1.70;99.90;;;;;;5094210;28;20418;-76
2022/01/19 08:33:22;;;;;;;22.33;9.57;;;1.70;99.90;;;;;;5112693;28;20042;-78
2022/01/19 08:35:48;;;;;;;16.87;10.13;;;1.70;99.90;;;;;;5112221;28;20460;-81
2022/01/19 08:38:14;;;;;;;20.67;9.37;;;1.70;99.90;;;;;;5112966;28;20088;-80
2022/01/19 08:40:40;;;;;;;18.17;9.17;;;1.70;99.90;;;;;;5087985;28;20110;-79
2022/01/19 08:43:06;;;;;;;20.47;9.90;;;1.70;99.90;;;;;;5095210;28;20031;-80
2022/01/19 08:45:32;;;;;;;18.90;9.50;;;1.70;99.90;;;;;;5094233;28;20100;-78
2022/01/19 08:47:58;;;;;;;19.33;9.60;;;1.80;99.90;;;;;;5094681;28;20040;-78
2022/01/19 08:50:23;;;;;;;18.13;9.23;;;1.80;99.90;;;;;;5094468;28;20061;-79
2022/01/19 08:52:50;;;;;;;19.43;9.80;;;1.80;99.90;;;;;;5093518;28;20023;-79
2022/01/19 08:55:16;;;;;;;17.40;9.40;;;1.90;99.90;;;;;;5094732;28;20019;-78
2022/01/19 08:57:44;;;;;;;18.63;9.60;;;1.90;99.90;;;;;;5093625;28;20046;-79
2022/01/19 09:00:13;;;;;;;23.30;9.40;;;1.90;99.90;;;;;;5112849;28;20142;-79
2022/01/19 09:02:38;;;;;;;19.73;9.67;;;1.90;99.90;;;;;;5112057;28;20098;-78
2022/01/19 09:05:05;;;;;;;18.23;8.67;;;1.90;99.90;;;;;;5095109;28;20115;-79
2022/01/19 09:07:31;;;;;;;18.23;9.27;;;2.00;99.90;;;;;;5093477;28;20032;-79
2022/01/19 09:09:57;;;;;;;18.33;8.93;;;2.00;99.90;;;;;;5088911;28;20374;-81
2022/01/19 09:12:23;;;;;;;18.47;9.00;;;2.10;99.90;;;;;;5110961;28;20057;-79
2022/01/19 09:14:49;;;;;;;16.80;9.30;;;2.10;99.90;;;;;;5094541;28;20019;-79
2022/01/19 09:17:15;;;;;;;19.60;9.00;;;2.10;99.90;;;;;;5094749;28;20376;-80
2022/01/19 09:19:41;;;;;;;17.60;8.83;;;2.20;99.90;;;;;;5094369;28;20066;-80
2022/01/19 09:22:10;;;;;;;16.43;8.63;;;2.30;99.90;;;;;;5094651;28;20035;-81
2022/01/19 09:24:39;;;;;;;20.87;9.73;;;2.30;99.90;;;;;;5093556;28;20043;-79
2022/01/19 09:27:05;;;;;;;19.90;9.00;;;2.30;99.90;;;;;;5094189;28;20024;-80
2022/01/19 09:29:31;;;;;;;14.47;8.13;;;2.30;99.90;;;;;;5094250;28;20473;-80
2022/01/19 09:32:00;;;;;;;16.53;8.80;;;2.40;99.90;;;;;;5094547;28;20114;-78
2022/01/19 09:34:26;;;;;;;18.97;9.10;;;2.40;99.90;;;;;;5094347;28;20487;-79
2022/01/19 09:36:52;;;;;;;18.77;8.60;;;2.40;99.90;;;;;;5096670;28;20051;-78
2022/01/19 09:39:23;;;;;;;18.90;9.47;;;2.50;99.90;;;;;;5098613;28;20054;-79
2022/01/19 09:41:49;;;;;;;16.33;9.02;;;2.50;99.90;;;;;;5090867;28;20031;-79
2022/01/19 09:44:17;;;;;;;18.87;9.33;;;2.60;99.90;;;;;;5098375;28;20401;-78
2022/01/19 09:46:43;;;;;;;15.07;8.00;;;2.60;99.90;;;;;;5097738;28;20035;-79
2022/01/19 09:49:11;;;;;;;17.50;9.43;;;2.60;99.90;;;;;;5098698;28;20077;-79
2022/01/19 09:51:40;;;;;;;14.83;7.87;;;2.70;99.90;;;;;;5115593;28;20098;-80
2022/01/19 09:54:06;;;;;;;18.20;8.90;;;2.70;99.90;;;;;;5098390;28;20020;-79
2022/01/19 09:56:32;;;;;;;17.57;9.03;;;2.70;99.90;;;;;;5115839;28;20396;-79
2022/01/19 09:58:58;;;;;;;19.87;9.23;;;2.80;99.90;;;;;;5098275;28;20049;-80
2022/01/19 10:01:24;;;;;;;16.83;9.30;;;2.80;99.90;;;;;;5116727;28;20059;-80
2022/01/19 10:03:51;;;;;;;15.63;8.63;;;2.80;99.90;;;;;;5092454;28;20024;-80
2022/01/19 10:06:19;;;;;;;18.77;8.90;;;2.90;99.90;;;;;;5097417;28;20039;-80
2022/01/19 10:08:54;;;;;;;19.17;8.73;;;2.90;99.90;;;;;;5097591;28;20032;-81
2022/01/19 10:17:01;;;;;;;15.43;8.57;;;3.10;99.90;;;;;;5101382;28;20045;-77
2022/01/19 10:19:30;;;;;;;19.00;8.30;;;3.10;99.90;;;;;;5097365;28;20016;-78
2022/01/19 10:22:02;;;;;;;16.70;8.03;;;3.20;99.90;;;;;;5115642;28;20019;-79
2022/01/19 10:24:39;;;;;;;19.30;8.47;;;3.20;99.90;;;;;;5097656;28;20043;-78
2022/01/19 10:27:24;;;;;;;14.83;7.87;;;3.30;99.90;;;;;;5097220;28;20027;-80
2022/01/19 10:29:53;;;;;;;14.57;7.90;;;3.20;99.90;;;;;;5114499;28;20062;-79
2022/01/19 10:32:25;;;;;;;18.47;8.97;;;3.20;99.90;;;;;;5097138;28;20422;-80
2022/01/19 10:34:52;;;;;;;20.43;9.10;;;3.20;99.90;;;;;;5096910;28;20019;-79
2022/01/19 10:37:27;;;;;;;18.13;8.87;;;3.30;99.90;;;;;;5097477;28;20123;-78
2022/01/19 10:39:57;;;;;;;15.20;8.20;;;3.30;99.90;;;;;;5091344;28;20476;-78
2022/01/19 10:42:25;;;;;;;18.47;8.40;;;3.30;99.90;;;;;;5095037;28;20033;-78
2022/01/19 10:44:58;;;;;;;16.27;8.07;;;3.40;99.90;;;;;;5096283;28;20020;-80
2022/01/19 10:47:43;;;;;;;17.67;8.57;;;3.50;99.90;;;;;;5096880;28;20168;-79
2022/01/19 10:50:12;;;;;;;19.20;9.40;;;3.50;99.90;;;;;;5095980;28;20038;-77
2022/01/19 10:52:43;;;;;;;18.60;9.27;;;3.50;99.90;;;;;;5113544;28;20016;-79
2022/01/19 10:55:13;;;;;;;18.55;8.52;;;3.50;99.90;;;;;;5096797;28;20024;-78
2022/01/19 10:57:41;;;;;;;13.57;7.47;;;3.60;99.90;;;;;;5096022;28;20115;-78
2022/01/19 11:00:22;;;;;;;17.60;9.03;;;3.60;99.90;;;;;;5096107;28;20419;-79
2022/01/19 11:02:57;;;;;;;14.20;7.90;;;3.70;99.90;;;;;;5085624;28;20376;-79
2022/01/19 11:05:46;;;;;;;22.67;9.00;;;3.70;99.90;;;;;;5096935;28;20430;-80
2022/01/19 11:08:13;;;;;;;16.30;7.77;;;3.80;99.90;;;;;;5115171;28;20485;-78
2022/01/19 11:10:39;;;;;;;16.53;8.13;;;3.80;99.90;;;;;;5094680;28;20019;-79
2022/01/19 11:13:13;;;;;;;16.73;8.50;;;3.90;99.90;;;;;;5097252;28;20077;-83
2022/01/19 11:15:39;;;;;;;16.37;8.13;;;4.00;99.90;;;;;;5096746;28;20030;-83
2022/01/19 11:18:05;;;;;;;18.10;8.20;;;4.20;99.90;;;;;;5097647;28;20072;-82
2022/01/19 11:20:39;;;;;;;14.50;7.93;;;4.30;99.90;;;;;;5096484;28;20019;-77
2022/01/19 11:23:32;;;;;;;14.50;8.13;;;4.40;99.90;;;;;;5115099;28;20016;-78
2022/01/19 11:26:16;;;;;;;14.87;8.00;;;4.50;99.90;;;;;;5097117;28;20040;-82
2022/01/19 11:28:47;;;;;;;15.47;7.40;;;4.50;99.90;;;;;;5076031;28;20024;-82
2022/01/19 11:31:19;;;;;;;14.65;7.70;;;4.50;99.90;;;;;;5103372;28;20027;-81
2022/01/19 11:33:58;;;;;;;17.95;8.55;;;4.50;99.90;;;;;;5096784;28;20784;-82
2022/01/19 11:36:34;;;;;;;15.97;7.80;;;4.50;99.90;;;;;;5091054;28;20040;-84
2022/01/19 11:39:22;;;;;;;47.37;20.57;;;4.50;99.90;;;;;;5114787;28;20012;-82
2022/01/19 11:41:58;;;;;;;18.17;8.03;;;4.60;99.90;;;;;;5087833;28;20476;-77
2022/01/19 11:44:33;;;;;;;15.87;8.80;;;4.60;99.90;;;;;;5113948;28;20152;-77
2022/01/19 11:47:17;;;;;;;21.53;8.93;;;4.60;99.90;;;;;;5095868;28;20019;-77
2022/01/19 11:49:45;;;;;;;15.03;7.60;;;4.50;99.90;;;;;;5095172;28;20036;-77
2022/01/19 11:52:12;;;;;;;16.67;8.70;;;4.50;99.90;;;;;;5095829;28;20034;-78
2022/01/19 11:54:38;;;;;;;15.83;8.07;;;4.50;99.90;;;;;;5113340;28;20054;-77
2022/01/19 11:57:07;;;;;;;13.60;7.50;;;4.50;99.90;;;;;;5095362;28;20028;-79
2022/01/19 11:59:50;;;;;;;18.63;7.87;;;4.50;99.90;;;;;;5093749;28;20051;-76
2022/01/19 12:02:24;;;;;;;16.10;7.50;;;4.60;99.90;;;;;;5095454;28;20073;-77
2022/01/19 12:05:12;;;;;;;13.47;7.03;;;4.60;99.90;;;;;;5094739;28;20317;-77
2022/01/19 12:07:43;;;;;;;13.67;7.20;;;4.60;99.90;;;;;;5094190;28;20119;-77
2022/01/19 12:10:13;;;;;;;15.23;7.63;;;4.70;99.90;;;;;;5087804;28;20024;-77
2022/01/19 12:12:57;;;;;;;15.23;8.47;;;4.70;99.90;;;;;;5094538;28;20083;-77
2022/01/19 12:15:57;;;;;;;18.10;8.43;;;4.70;99.90;;;;;;5113615;28;20540;-78
2022/01/19 12:18:43;;;;;;;13.33;7.20;;;4.70;99.90;;;;;;5095527;28;20432;-77
2022/01/19 12:21:12;;;;;;;13.43;7.60;;;4.80;99.90;;;;;;5095836;28;20015;-77
2022/01/19 12:23:39;;;;;;;14.67;7.90;;;4.70;99.90;;;;;;5094624;28;20106;-77
2022/01/19 12:26:10;;;;;;;16.10;7.93;;;4.80;99.90;;;;;;5113065;28;20432;-77
2022/01/19 12:28:47;;;;;;;16.17;8.50;;;4.80;99.90;;;;;;5095148;28;20040;-78
2022/01/19 12:31:25;;;;;;;17.73;7.60;;;4.80;99.90;;;;;;5087453;28;20426;-78
2022/01/19 12:34:03;;;;;;;16.30;8.40;;;4.80;99.90;;;;;;5086701;28;20020;-77
2022/01/19 12:36:42;;;;;;;17.43;8.40;;;4.80;99.90;;;;;;5094710;28;20127;-78
2022/01/19 12:39:27;;;;;;;15.87;8.47;;;4.80;99.90;;;;;;5092094;28;20022;-78
2022/01/19 12:42:02;;;;;;;17.17;8.70;;;4.80;99.90;;;;;;5092393;28;20047;-77
2022/01/19 12:44:43;;;;;;;16.17;8.23;;;4.70;99.90;;;;;;5094489;28;20019;-77
2022/01/19 12:47:29;;;;;;;18.13;8.45;;;4.70;99.90;;;;;;5112510;28;20043;-78
2022/01/19 12:50:18;;;;;;;16.43;8.70;;;4.60;99.90;;;;;;5092947;28;20045;-77
2022/01/19 12:52:52;;;;;;;18.30;8.93;;;4.70;99.90;;;;;;5094207;28;20034;-77
2022/01/19 12:55:24;;;;;;;19.43;9.33;;;4.60;99.90;;;;;;5094721;28;20028;-76
2022/01/19 12:57:50;;;;;;;12.63;6.30;;;4.60;99.90;;;;;;5094185;28;20027;-78
2022/01/19 13:00:23;;;;;;;19.13;8.73;;;4.70;99.90;;;;;;5113145;28;20036;-78
2022/01/19 13:02:49;;;;;;;17.27;9.10;;;4.70;99.90;;;;;;5111465;28;20520;-79
2022/01/19 13:05:18;;;;;;;17.00;8.90;;;4.60;99.90;;;;;;5113196;28;20115;-79
2022/01/19 13:07:55;;;;;;;18.63;8.37;;;4.60;99.90;;;;;;5094407;28;20495;-85
2022/01/19 13:10:39;;;;;;;14.93;8.03;;;4.60;99.90;;;;;;5105707;28;20362;-78
2022/01/19 13:15:51;;;;;;;17.80;8.43;;;4.70;99.90;;;;;;5116766;28;20102;-84
2022/01/19 13:18:28;;;;;;;16.93;8.23;;;4.60;99.90;;;;;;5099514;28;20051;-85
2022/01/19 13:20:55;;;;;;;15.53;8.40;;;4.60;99.90;;;;;;5098696;28;20065;-80
2022/01/19 13:23:22;;;;;;;18.63;9.33;;;4.60;99.90;;;;;;5099200;28;20058;-83
2022/01/19 13:26:00;;;;;;;22.40;10.10;;;4.60;99.90;;;;;;5078118;28;20497;-80
2022/01/19 13:28:30;;;;;;;22.03;9.87;;;4.60;99.90;;;;;;5096745;28;20039;-79
2022/01/19 13:30:58;;;;;;;19.83;9.63;;;4.60;99.90;;;;;;5078520;28;20020;-81
2022/01/19 13:33:26;;;;;;;16.83;9.03;;;4.60;99.90;;;;;;5078775;28;20028;-78
2022/01/19 13:36:00;;;;;;;20.33;9.60;;;4.50;99.90;;;;;;5077458;28;20024;-77
2022/01/19 13:38:26;;;;;;;17.77;10.07;;;4.50;99.90;;;;;;5077787;28;20028;-75
2022/01/19 13:41:05;;;;;;;17.57;9.63;;;4.50;99.90;;;;;;5068981;28;20050;-80
2022/01/19 13:43:33;;;;;;;19.50;9.50;;;4.50;99.90;;;;;;5078270;28;20354;-79
2022/01/19 13:46:12;;;;;;;23.00;9.73;;;4.50;99.90;;;;;;5096138;28;20024;-80
2022/01/19 13:48:39;;;;;;;18.83;9.97;;;4.50;99.90;;;;;;5077926;28;20036;-77
2022/01/19 13:51:09;;;;;;;18.30;9.37;;;4.50;99.90;;;;;;5078046;28;20020;-78
2022/01/19 13:53:37;;;;;;;19.43;9.40;;;4.50;99.90;;;;;;5086256;28;20028;-77
2022/01/19 13:56:15;;;;;;;21.30;10.70;;;4.50;99.90;;;;;;5078136;28;20024;-77
2022/01/19 13:58:44;;;;;;;24.10;10.43;;;4.40;99.90;;;;;;5077234;28;20447;-77
2022/01/19 14:01:14;;;;;;;22.27;10.30;;;4.40;99.90;;;;;;5095636;28;20423;-77
2022/01/19 14:04:04;;;;;;;19.97;10.30;;;4.40;99.90;;;;;;5094378;28;20111;-76
2022/01/19 14:06:42;;;;;;;24.80;10.37;;;4.40;99.90;;;;;;5077529;28;20086;-78
2022/01/19 14:09:08;;;;;;;20.90;10.23;;;4.40;99.90;;;;;;5095871;28;20028;-77
2022/01/19 14:11:34;;;;;;;23.00;9.93;;;4.40;99.90;;;;;;5069209;28;20032;-77
2022/01/19 14:14:02;;;;;;;25.13;11.27;;;4.50;99.90;;;;;;5077238;28;20031;-77
2022/01/19 14:16:38;;;;;;;26.57;11.23;;;4.40;99.90;;;;;;5077799;28;20063;-77
2022/01/19 14:19:24;;;;;;;25.50;11.00;;;4.40;99.90;;;;;;5077757;28;20019;-80
2022/01/19 14:22:14;;;;;;;24.03;11.43;;;4.40;99.90;;;;;;5075364;28;20126;-80
2022/01/19 14:24:46;;;;;;;22.97;10.33;;;4.40;99.90;;;;;;5082594;28;20481;-81